createdAt,value
2018-08-08T00:00:20.449Z,6.60
2018-08-08T00:02:50.068Z,6.50
2018-08-08T00:05:19.785Z,7.07
2018-08-08T00:07:49.923Z,5.97
2018-08-08T00:10:19.147Z,6.30
2018-08-08T00:12:48.311Z,6.30
2018-08-08T00:15:17.267Z,6.30
2018-08-08T00:17:46.761Z,6.23
2018-08-08T00:20:15.862Z,5.60
2018-08-08T00:22:45.073Z,6.63
2018-08-08T00:25:15.304Z,6.60
2018-08-08T00:27:44.852Z,7.20
2018-08-08T00:30:15.383Z,6.27
2018-08-08T00:32:45.386Z,6.90
2018-08-08T00:35:14.504Z,8.10
2018-08-08T00:37:43.788Z,7.50
2018-08-08T00:40:14.300Z,6.97
2018-08-08T00:42:44.351Z,7.20
2018-08-08T00:45:14.999Z,7.17
2018-08-08T00:47:44.823Z,9.07
2018-08-08T00:50:15.138Z,8.97
2018-08-08T00:52:44.810Z,8.93
2018-08-08T00:55:14.403Z,8.93
2018-08-08T00:57:43.844Z,8.20
2018-08-08T01:00:14.976Z,7.53
2018-08-08T01:02:44.331Z,7.60
2018-08-08T01:05:14.438Z,7.93
2018-08-08T01:07:44.484Z,9.67
2018-08-08T01:10:13.659Z,9.10
2018-08-08T01:12:43.094Z,8.60
2018-08-08T01:15:13.610Z,7.80
2018-08-08T01:17:43.012Z,7.10
2018-08-08T01:20:17.000Z,7.73
2018-08-08T01:22:46.591Z,7.07
2018-08-08T01:25:16.446Z,6.80
2018-08-08T01:27:45.616Z,7.27
2018-08-08T01:30:19.664Z,6.70
2018-08-08T01:32:48.956Z,6.90
2018-08-08T01:35:18.271Z,7.20
2018-08-08T01:37:47.572Z,7.10
2018-08-08T01:40:18.068Z,6.57
2018-08-08T01:42:47.383Z,6.67
2018-08-08T01:45:17.692Z,7.53
2018-08-08T01:47:47.253Z,6.47
2018-08-08T01:50:17.392Z,7.20
2018-08-08T01:52:46.484Z,7.23
2018-08-08T01:55:16.120Z,8.10
2018-08-08T01:57:45.398Z,7.40
2018-08-08T02:00:15.814Z,8.27
2018-08-08T02:02:45.299Z,8.27
2018-08-08T02:05:14.793Z,8.27
2018-08-08T02:07:44.011Z,7.57
2018-08-08T02:10:21.918Z,7.57
2018-08-08T02:12:51.580Z,7.50
2018-08-08T02:15:20.848Z,7.17
2018-08-08T02:17:50.432Z,7.60
2018-08-08T02:20:19.582Z,6.87
2018-08-08T02:22:48.891Z,7.07
2018-08-08T02:25:18.903Z,8.03
2018-08-08T02:27:48.168Z,8.43
2018-08-08T02:30:19.583Z,8.60
2018-08-08T02:32:49.573Z,7.57
2018-08-08T02:35:19.125Z,7.47
2018-08-08T02:37:48.390Z,7.20
2018-08-08T02:40:17.471Z,7.70
2018-08-08T02:42:46.825Z,10.07
2018-08-08T02:45:17.835Z,9.43
2018-08-08T02:47:46.867Z,8.90
2018-08-08T02:50:17.114Z,9.30
2018-08-08T02:52:46.467Z,9.87
2018-08-08T02:55:15.915Z,9.80
2018-08-08T02:57:45.190Z,9.87
2018-08-08T03:00:16.434Z,10.13
2018-08-08T03:02:45.689Z,7.87
2018-08-08T03:05:14.795Z,9.17
2018-08-08T03:07:45.377Z,9.53
2018-08-08T03:10:15.582Z,8.50
2018-08-08T03:12:44.701Z,8.70
2018-08-08T03:15:15.458Z,8.47
2018-08-08T03:17:44.568Z,8.30
2018-08-08T03:20:15.004Z,8.40
2018-08-08T03:22:45.223Z,8.23
2018-08-08T03:25:15.784Z,8.63
2018-08-08T03:27:45.416Z,9.03
2018-08-08T03:30:17.233Z,8.53
2018-08-08T03:32:46.703Z,8.70
2018-08-08T03:35:16.663Z,10.07
2018-08-08T03:37:45.895Z,10.43
2018-08-08T03:40:15.898Z,10.97
2018-08-08T03:42:45.069Z,10.57
2018-08-08T03:45:15.275Z,9.77
2018-08-08T03:47:44.833Z,10.20
2018-08-08T03:50:14.461Z,11.60
2018-08-08T03:52:44.452Z,11.10
2018-08-08T03:55:13.767Z,11.23
2018-08-08T03:57:43.237Z,10.97
2018-08-08T04:00:16.485Z,11.53
2018-08-08T04:02:45.958Z,11.37
2018-08-08T04:05:15.359Z,11.23
2018-08-08T04:07:44.824Z,11.40
2018-08-08T04:10:14.675Z,11.80
2018-08-08T04:12:44.068Z,12.60
2018-08-08T04:15:14.821Z,12.10
2018-08-08T04:17:44.064Z,13.20
2018-08-08T04:20:13.207Z,13.40
2018-08-08T04:22:42.479Z,14.10
2018-08-08T04:25:13.714Z,15.27
2018-08-08T04:27:43.421Z,15.10
2018-08-08T04:30:14.798Z,15.87
2018-08-08T04:32:43.819Z,14.67
2018-08-08T04:35:13.004Z,12.20
2018-08-08T04:37:42.285Z,11.23
2018-08-08T04:40:13.417Z,11.70
2018-08-08T04:42:43.859Z,12.73
2018-08-08T04:45:13.130Z,18.03
2018-08-08T04:47:43.088Z,20.13
2018-08-08T04:50:12.965Z,19.90
2018-08-08T04:52:43.052Z,32.30
2018-08-08T04:55:13.579Z,39.80
2018-08-08T04:57:42.790Z,37.67
2018-08-08T05:00:13.560Z,50.17
2018-08-08T05:02:42.893Z,65.10
2018-08-08T05:05:12.115Z,101.90
2018-08-08T05:07:41.458Z,90.77
2018-08-08T05:10:11.651Z,41.23
2018-08-08T05:12:41.310Z,34.77
2018-08-08T05:15:14.051Z,22.37
2018-08-08T05:17:43.536Z,19.50
2018-08-08T05:20:13.837Z,15.43
2018-08-08T05:22:43.465Z,13.77
2018-08-08T05:25:13.550Z,14.23
2018-08-08T05:27:42.714Z,12.93
2018-08-08T05:30:15.050Z,13.03
2018-08-08T05:32:44.432Z,15.53
2018-08-08T05:35:14.442Z,10.90
2018-08-08T05:37:43.731Z,11.90
2018-08-08T05:40:18.280Z,14.17
2018-08-08T05:42:48.281Z,14.93
2018-08-08T05:45:17.284Z,17.60
2018-08-08T05:47:47.522Z,17.10
2018-08-08T05:50:16.888Z,14.27
2018-08-08T05:52:46.744Z,10.27
2018-08-08T05:55:16.776Z,9.43
2018-08-08T05:57:47.334Z,34.20
2018-08-08T06:00:26.035Z,21.37
2018-08-08T06:02:57.184Z,7.57
2018-08-08T06:05:26.609Z,7.30
2018-08-08T06:07:56.254Z,8.87
2018-08-08T06:10:26.257Z,8.57
2018-08-08T06:12:55.434Z,14.87
2018-08-08T06:15:24.813Z,11.93
2018-08-08T06:17:54.303Z,13.07
2018-08-08T06:20:23.619Z,12.40
2018-08-08T06:22:52.895Z,12.57
2018-08-08T06:25:22.084Z,9.17
2018-08-08T06:27:51.287Z,7.80
2018-08-08T06:30:22.849Z,7.67
2018-08-08T06:32:52.804Z,6.97
2018-08-08T06:35:24.063Z,6.57
2018-08-08T06:37:54.353Z,6.73
2018-08-08T06:40:23.369Z,8.93
2018-08-08T06:42:52.651Z,8.90
2018-08-08T06:45:22.831Z,6.90
2018-08-08T06:47:52.656Z,6.47
2018-08-08T06:50:21.960Z,7.27
2018-08-08T06:52:51.527Z,6.80
2018-08-08T06:55:20.616Z,6.63
2018-08-08T06:57:50.235Z,5.80
2018-08-08T07:00:25.011Z,7.03
2018-08-08T07:02:54.168Z,5.67
2018-08-08T07:05:23.343Z,5.85
2018-08-08T07:07:53.589Z,6.05
2018-08-08T07:10:22.748Z,5.70
2018-08-08T07:12:52.527Z,5.05
2018-08-08T07:15:21.950Z,4.87
2018-08-08T07:17:51.446Z,4.87
2018-08-08T07:20:20.930Z,5.60
2018-08-08T07:22:50.252Z,5.12
2018-08-08T07:25:19.760Z,5.85
2018-08-08T07:27:48.942Z,5.62
2018-08-08T07:30:18.768Z,5.70
2018-08-08T07:32:48.064Z,5.45
2018-08-08T07:35:17.348Z,5.60
2018-08-08T07:37:47.243Z,5.85
2018-08-08T07:40:17.591Z,4.92
2018-08-08T07:42:47.210Z,5.60
2018-08-08T07:45:27.297Z,5.95
2018-08-08T07:47:56.449Z,5.65
2018-08-08T07:50:25.492Z,5.10
2018-08-08T07:52:55.140Z,4.62
2018-08-08T07:55:24.715Z,5.30
2018-08-08T07:57:53.960Z,5.30
2018-08-08T08:00:26.184Z,5.40
2018-08-08T08:02:55.584Z,5.15
2018-08-08T08:05:24.904Z,5.55
2018-08-08T08:07:54.647Z,5.40
2018-08-08T08:10:23.787Z,5.10
2018-08-08T08:12:52.909Z,5.67
2018-08-08T08:15:21.971Z,5.45
2018-08-08T08:17:51.178Z,5.37
2018-08-08T08:20:20.608Z,12.30
2018-08-08T08:22:50.604Z,6.40
2018-08-08T08:25:19.797Z,5.33
2018-08-08T08:27:49.382Z,5.50
2018-08-08T08:30:19.677Z,5.33
2018-08-08T08:32:48.985Z,5.30
2018-08-08T08:35:18.125Z,5.47
2018-08-08T08:37:47.311Z,5.62
2018-08-08T08:40:16.734Z,5.80
2018-08-08T08:42:46.020Z,5.03
2018-08-08T08:45:15.473Z,5.30
2018-08-08T08:47:44.811Z,4.95
2018-08-08T08:50:14.139Z,4.58
2018-08-08T08:52:43.151Z,4.58
2018-08-08T08:55:12.199Z,3.87
2018-08-08T08:57:41.404Z,3.52
2018-08-08T09:00:12.264Z,4.62
2018-08-08T09:02:41.738Z,4.35
2018-08-08T09:05:11.513Z,4.47
2018-08-08T09:07:40.761Z,3.90
2018-08-08T09:10:10.730Z,3.80
2018-08-08T09:12:40.764Z,3.85
2018-08-08T09:15:11.503Z,3.75
2018-08-08T09:17:40.720Z,4.08
2018-08-08T09:20:09.904Z,4.10
2018-08-08T09:22:39.277Z,4.03
2018-08-08T09:25:08.693Z,3.75
2018-08-08T09:27:37.901Z,3.80
2018-08-08T09:30:10.372Z,3.77
2018-08-08T09:32:41.527Z,4.90
2018-08-08T09:35:10.858Z,4.75
2018-08-08T09:37:40.388Z,4.72
2018-08-08T09:40:10.252Z,4.75
2018-08-08T09:42:40.461Z,5.12
2018-08-08T09:45:10.841Z,4.70
2018-08-08T09:47:41.139Z,5.05
2018-08-08T09:50:10.736Z,5.45
2018-08-08T09:52:39.965Z,4.85
2018-08-08T09:55:09.093Z,4.50
2018-08-08T09:57:38.660Z,5.30
2018-08-08T10:00:08.012Z,5.78
2018-08-08T10:02:43.328Z,5.60
2018-08-08T10:05:12.508Z,5.65
2018-08-08T10:07:41.690Z,6.17
2018-08-08T10:10:11.015Z,6.10
2018-08-08T10:12:40.605Z,5.30
2018-08-08T10:15:09.816Z,5.50
2018-08-08T10:17:39.406Z,4.97
2018-08-08T10:20:08.915Z,4.20
2018-08-08T10:22:38.050Z,4.20
2018-08-08T10:25:07.468Z,4.15
2018-08-08T10:27:36.275Z,4.87
2018-08-08T10:30:06.048Z,4.47
2018-08-08T10:32:34.785Z,4.28
2018-08-08T10:35:03.431Z,4.40
2018-08-08T10:37:32.580Z,4.30
2018-08-08T10:40:01.892Z,4.30
2018-08-08T10:42:31.323Z,3.70
2018-08-08T10:45:00.818Z,4.22
2018-08-08T10:47:30.114Z,4.53
2018-08-08T10:49:59.188Z,4.12
2018-08-08T10:52:28.500Z,4.37
2018-08-08T10:54:57.732Z,4.12
2018-08-08T10:57:27.808Z,5.15
2018-08-08T10:59:57.093Z,5.10
2018-08-08T11:02:26.465Z,6.10
2018-08-08T11:04:55.928Z,10.90
2018-08-08T11:07:25.311Z,6.70
2018-08-08T11:09:54.584Z,4.70
2018-08-08T11:12:23.835Z,4.55
2018-08-08T11:14:53.391Z,5.00
2018-08-08T11:17:22.663Z,4.33
2018-08-08T11:19:52.164Z,4.37
2018-08-08T11:22:22.004Z,4.65
2018-08-08T11:24:51.488Z,7.35
2018-08-08T11:27:20.835Z,5.30
2018-08-08T11:29:50.255Z,6.25
2018-08-08T11:32:19.596Z,5.20
2018-08-08T11:34:48.688Z,5.80
2018-08-08T11:37:17.937Z,11.57
2018-08-08T11:39:47.296Z,8.93
2018-08-08T11:42:16.687Z,5.92
2018-08-08T11:44:46.017Z,5.80
2018-08-08T11:47:16.073Z,11.57
2018-08-08T11:49:46.131Z,5.33
2018-08-08T11:52:15.343Z,6.62
2018-08-08T11:54:44.560Z,6.47
2018-08-08T11:57:14.020Z,6.65
2018-08-08T11:59:43.244Z,5.58
2018-08-08T12:02:12.622Z,5.58
2018-08-08T12:04:41.970Z,6.15
2018-08-08T12:07:11.556Z,5.83
2018-08-08T12:09:40.788Z,6.60
2018-08-08T12:12:10.965Z,6.33
2018-08-08T12:14:40.507Z,5.60
2018-08-08T12:17:10.323Z,5.40
2018-08-08T12:19:39.897Z,5.80
2018-08-08T12:22:09.228Z,5.80
2018-08-08T12:24:38.456Z,5.78
2018-08-08T12:27:07.880Z,5.50
2018-08-08T12:29:37.045Z,5.70
2018-08-08T12:32:06.569Z,5.58
2018-08-08T12:34:35.894Z,5.42
2018-08-08T12:37:05.144Z,6.83
2018-08-08T12:39:34.536Z,6.25
2018-08-08T12:42:03.623Z,5.60
2018-08-08T12:44:33.128Z,6.12
2018-08-08T12:47:02.472Z,6.25
2018-08-08T12:49:31.584Z,6.17
2018-08-08T12:52:00.961Z,6.95
2018-08-08T12:54:30.244Z,6.78
2018-08-08T12:56:59.469Z,7.60
2018-08-08T12:59:29.087Z,8.00
2018-08-08T13:01:58.547Z,7.00
2018-08-08T13:04:27.842Z,6.30
2018-08-08T13:06:57.390Z,6.53
2018-08-08T13:09:26.829Z,7.17
2018-08-08T13:11:56.241Z,7.00
2018-08-08T13:14:25.334Z,6.95
2018-08-08T13:16:54.780Z,6.95
2018-08-08T13:19:24.122Z,7.10
2018-08-08T13:21:53.436Z,7.22
2018-08-08T13:24:22.835Z,6.62
2018-08-08T13:26:52.348Z,6.42
2018-08-08T13:29:21.443Z,7.65
2018-08-08T13:31:50.904Z,7.70
2018-08-08T13:34:19.936Z,7.25
2018-08-08T13:36:49.192Z,7.30
2018-08-08T13:39:18.885Z,7.10
2018-08-08T13:41:48.118Z,7.33
2018-08-08T13:44:17.352Z,7.42
2018-08-08T13:46:46.772Z,7.20
2018-08-08T13:49:15.933Z,7.05
2018-08-08T13:51:45.343Z,7.10
2018-08-08T13:54:14.512Z,7.45
2018-08-08T13:56:43.801Z,7.72
2018-08-08T13:59:13.199Z,6.90
2018-08-08T14:01:42.417Z,7.17
2018-08-08T14:04:11.720Z,7.12
2018-08-08T14:06:40.832Z,6.83
2018-08-08T14:09:12.037Z,7.28
2018-08-08T14:11:41.152Z,7.17
2018-08-08T14:14:10.483Z,6.47
2018-08-08T14:16:39.822Z,6.80
2018-08-08T14:19:09.113Z,6.80
2018-08-08T14:21:38.495Z,6.40
2018-08-08T14:24:08.732Z,6.55
2018-08-08T14:26:38.084Z,6.62
2018-08-08T14:29:07.061Z,7.58
2018-08-08T14:31:36.684Z,7.05
2018-08-08T14:34:05.901Z,6.90
2018-08-08T14:36:35.097Z,6.85
2018-08-08T14:39:06.836Z,7.30
2018-08-08T14:41:36.145Z,7.37
2018-08-08T14:44:05.446Z,7.78
2018-08-08T14:46:34.588Z,7.72
2018-08-08T14:49:03.838Z,7.62
2018-08-08T14:51:33.079Z,8.03
2018-08-08T14:54:02.447Z,7.67
2018-08-08T14:56:31.676Z,8.58
2018-08-08T14:59:00.995Z,7.50
2018-08-08T15:01:30.361Z,7.03
2018-08-08T15:04:00.580Z,8.75
2018-08-08T15:06:29.886Z,7.50
2018-08-08T15:08:59.073Z,7.33
2018-08-08T15:11:28.302Z,7.03
2018-08-08T15:13:57.452Z,6.92
2018-08-08T15:16:27.563Z,7.03
2018-08-08T15:18:56.776Z,6.87
2018-08-08T15:21:26.363Z,6.78
2018-08-08T15:23:55.465Z,6.80
2018-08-08T15:26:24.675Z,6.95
2018-08-08T15:28:53.869Z,6.67
2018-08-08T15:31:22.988Z,7.12
2018-08-08T15:33:52.096Z,7.70
2018-08-08T15:36:21.317Z,7.42
2018-08-08T15:38:50.937Z,7.03
2018-08-08T15:41:20.079Z,7.45
2018-08-08T15:43:50.122Z,7.42
2018-08-08T15:46:19.337Z,7.65
2018-08-08T15:48:48.713Z,7.55
2018-08-08T15:51:17.982Z,7.58
2018-08-08T15:53:47.104Z,7.87
2018-08-08T15:56:16.528Z,7.60
2018-08-08T15:58:45.713Z,7.20
2018-08-08T16:01:15.127Z,7.45
2018-08-08T16:03:44.395Z,7.75
2018-08-08T16:06:13.603Z,7.65
2018-08-08T16:08:43.024Z,7.83
2018-08-08T16:11:12.370Z,12.37
2018-08-08T16:13:41.548Z,11.12
2018-08-08T16:16:10.949Z,8.90
2018-08-08T16:18:40.089Z,9.00
2018-08-08T16:21:09.272Z,8.43
2018-08-08T16:23:39.998Z,8.45
2018-08-08T16:26:09.461Z,9.00
2018-08-08T16:28:38.796Z,8.58
2018-08-08T16:31:08.416Z,7.90
2018-08-08T16:33:38.051Z,8.10
2018-08-08T16:36:07.479Z,8.05
2018-08-08T16:38:36.883Z,8.45
2018-08-08T16:41:06.197Z,8.30
2018-08-08T16:43:35.535Z,11.50
2018-08-08T16:46:04.609Z,10.15
2018-08-08T16:48:33.986Z,21.50
2018-08-08T16:51:03.177Z,66.53
2018-08-08T16:53:32.556Z,45.63
2018-08-08T16:56:01.619Z,44.15
2018-08-08T16:58:30.866Z,60.75
2018-08-08T17:00:59.939Z,94.00
2018-08-08T17:03:29.512Z,62.25
2018-08-08T17:05:58.784Z,17.60
2018-08-08T17:08:28.273Z,15.63
2018-08-08T17:10:57.555Z,17.15
2018-08-08T17:13:26.907Z,14.50
2018-08-08T17:15:56.332Z,12.80
2018-08-08T17:18:25.453Z,11.80
2018-08-08T17:20:54.568Z,11.70
2018-08-08T17:23:23.894Z,12.37
2018-08-08T17:25:53.542Z,13.65
2018-08-08T17:28:22.911Z,13.35
2018-08-08T17:30:52.171Z,16.93
2018-08-08T17:33:21.396Z,17.32
2018-08-08T17:35:51.115Z,16.27
2018-08-08T17:38:20.290Z,20.45
2018-08-08T17:40:49.600Z,20.77
2018-08-08T17:43:19.805Z,23.12
2018-08-08T17:45:49.243Z,21.33
2018-08-08T17:48:19.085Z,21.05
2018-08-08T17:50:48.308Z,18.85
2018-08-08T17:53:17.977Z,17.57
2018-08-08T17:55:47.601Z,15.80
2018-08-08T17:58:16.776Z,16.10
2018-08-08T18:00:46.467Z,15.20
2018-08-08T18:03:15.683Z,15.43
2018-08-08T18:05:47.163Z,15.05
2018-08-08T18:08:20.231Z,14.78
2018-08-08T18:10:50.640Z,15.50
2018-08-08T18:13:19.891Z,16.50
2018-08-08T18:15:49.156Z,13.58
2018-08-08T18:18:18.174Z,12.73
2018-08-08T18:20:47.494Z,14.87
2018-08-08T18:23:16.841Z,15.65
2018-08-08T18:25:46.389Z,15.90
2018-08-08T18:28:15.547Z,16.65
2018-08-08T18:30:45.664Z,15.30
2018-08-08T18:33:15.110Z,15.10
2018-08-08T18:35:44.258Z,15.03
2018-08-08T18:38:13.541Z,14.65
2018-08-08T18:40:42.585Z,14.83
2018-08-08T18:43:12.331Z,16.95
2018-08-08T18:45:41.838Z,15.70
2018-08-08T18:48:11.262Z,16.55
2018-08-08T18:50:40.944Z,18.30
2018-08-08T18:53:10.370Z,17.70
2018-08-08T18:55:39.468Z,14.70
2018-08-08T18:58:09.352Z,16.62
2018-08-08T19:00:38.879Z,14.47
2018-08-08T19:03:08.525Z,13.88
2018-08-08T19:05:37.765Z,14.43
2018-08-08T19:08:07.786Z,12.23
2018-08-08T19:10:37.713Z,13.45
2018-08-08T19:13:08.108Z,12.98
2018-08-08T19:15:37.623Z,13.48
2018-08-08T19:18:07.056Z,15.08
2018-08-08T19:20:36.357Z,16.73
2018-08-08T19:23:05.881Z,16.70
2018-08-08T19:25:35.273Z,16.27
2018-08-08T19:28:04.692Z,16.62
2018-08-08T19:30:34.065Z,15.90
2018-08-08T19:33:03.849Z,15.05
2018-08-08T19:35:33.297Z,13.83
2018-08-08T19:38:02.474Z,15.40
2018-08-08T19:40:31.674Z,15.55
2018-08-08T19:43:01.090Z,15.55
2018-08-08T19:45:30.624Z,14.63
2018-08-08T19:48:00.195Z,14.60
2018-08-08T19:50:29.421Z,14.13
2018-08-08T19:52:58.887Z,13.97
2018-08-08T19:55:28.026Z,15.13
2018-08-08T19:57:57.463Z,15.47
2018-08-08T20:00:27.826Z,15.10
2018-08-08T20:02:56.947Z,15.20
2018-08-08T20:05:26.508Z,15.67
2018-08-08T20:07:55.913Z,17.63
2018-08-08T20:10:25.047Z,19.13
2018-08-08T20:12:54.785Z,18.77
2018-08-08T20:15:24.200Z,16.13
2018-08-08T20:17:53.433Z,22.98
2018-08-08T20:20:23.138Z,24.80
2018-08-08T20:22:52.400Z,21.20
2018-08-08T20:25:21.747Z,18.27
2018-08-08T20:27:50.813Z,21.50
2018-08-08T20:30:20.242Z,17.50
2018-08-08T20:32:49.432Z,14.57
2018-08-08T20:35:18.766Z,22.33
2018-08-08T20:37:48.059Z,20.67
2018-08-08T20:40:17.584Z,19.67
2018-08-08T20:42:46.708Z,18.43
2018-08-08T20:45:16.242Z,18.93
2018-08-08T20:47:45.350Z,19.67
2018-08-08T20:50:14.508Z,18.50
2018-08-08T20:52:43.840Z,20.13
2018-08-08T20:55:13.363Z,19.83
2018-08-08T20:57:42.893Z,20.87
2018-08-08T21:00:12.011Z,17.00
2018-08-08T21:02:41.418Z,18.77
2018-08-08T21:05:10.762Z,19.57
2018-08-08T21:07:40.214Z,20.70
2018-08-08T21:10:09.817Z,23.90
2018-08-08T21:12:39.381Z,22.73
2018-08-08T21:15:10.665Z,25.00
2018-08-08T21:17:40.306Z,20.60
2018-08-08T21:20:09.885Z,24.03
2018-08-08T21:22:39.484Z,19.00
2018-08-08T21:25:08.783Z,20.70
2018-08-08T21:27:38.557Z,18.57
2018-08-08T21:30:08.408Z,19.27
2018-08-08T21:32:37.660Z,19.90
2018-08-08T21:35:07.040Z,20.80
2018-08-08T21:37:36.232Z,30.03
2018-08-08T21:40:05.633Z,24.00
2018-08-08T21:42:34.895Z,24.53
2018-08-08T21:45:04.736Z,26.57
2018-08-08T21:47:34.188Z,25.47
2018-08-08T21:50:03.811Z,22.83
2018-08-08T21:52:33.435Z,22.77
2018-08-08T21:55:13.252Z,22.10
2018-08-08T21:57:53.569Z,21.10
2018-08-08T22:00:33.952Z,19.80
2018-08-08T22:03:13.928Z,18.77
2018-08-08T22:05:53.770Z,22.73
2018-08-08T22:08:34.168Z,26.63
2018-08-08T22:11:16.164Z,24.33
2018-08-08T22:13:56.756Z,23.90
2018-08-08T22:16:37.190Z,22.97
2018-08-08T22:19:21.124Z,22.00
2018-08-08T22:21:50.857Z,22.07
2018-08-08T22:24:19.871Z,23.37
2018-08-08T22:26:49.135Z,22.07
2018-08-08T22:29:18.248Z,21.47
2018-08-08T22:31:47.079Z,20.17
2018-08-08T22:34:16.424Z,19.27
2018-08-08T22:36:45.806Z,17.80
2018-08-08T22:39:16.930Z,17.20
2018-08-08T22:41:46.130Z,15.33
2018-08-08T22:44:15.838Z,16.37
2018-08-08T22:46:45.374Z,15.60
2018-08-08T22:49:14.608Z,17.63
2018-08-08T22:51:43.940Z,16.73
2018-08-08T22:54:13.605Z,18.10
2018-08-08T22:56:42.964Z,18.53
2018-08-08T22:59:12.128Z,16.80
2018-08-08T23:01:41.295Z,20.93
2018-08-08T23:04:10.449Z,21.27
2018-08-08T23:06:39.622Z,19.13
2018-08-08T23:09:10.377Z,17.43
2018-08-08T23:11:39.980Z,18.23
2018-08-08T23:14:09.294Z,17.87
2018-08-08T23:16:39.276Z,16.97
2018-08-08T23:19:08.507Z,16.73
2018-08-08T23:21:38.001Z,17.20
2018-08-08T23:24:07.275Z,17.23
2018-08-08T23:26:36.594Z,17.27
2018-08-08T23:29:05.871Z,17.40
2018-08-08T23:31:35.296Z,17.10
2018-08-08T23:34:04.327Z,17.60
2018-08-08T23:36:33.736Z,16.63
2018-08-08T23:39:03.004Z,16.53
2018-08-08T23:41:32.234Z,17.20
2018-08-08T23:44:01.481Z,16.77
2018-08-08T23:46:30.663Z,16.20
2018-08-08T23:49:00.172Z,16.73
2018-08-08T23:51:29.387Z,15.40
2018-08-08T23:53:58.906Z,15.90
2018-08-08T23:56:28.064Z,14.80
2018-08-08T23:58:57.484Z,15.53
